Terminal Aerodrome Forecast
Issued by NWS Wilmington, OH

Current Version | Previous Version | Graphics & Text | Print | Product List | Glossary On
Versions: 1 2 3 4 5 6 7 8 9 10 11 12 13 14 15 16 17 18 19 20 21 22
616
FTUS41 KILN 291132
TAFCVG
TAF
KCVG 291132Z 2912/3018 05010KT P6SM OVC012
      TEMPO 2912/2914 SCT012
     FM291400 07010KT P6SM BKN025
     FM292000 08010KT P6SM BKN050
     FM292200 08010KT P6SM SCT250
     FM300500 10011KT P6SM BKN150
     FM301400 10010KT P6SM VCSH OVC050=

USA.gov is the U.S. government's official web portal to all federal, state and local government web resources and services.